РПИ Самара

Региональный центр Самара (РегЦ) Единой системы организации воздушного движения сети VATSIM является структурным подразделением VATRUS и находится в составе региона "Западная Россия", в который также входят территории Регионального центра Москва и Зонального центра Минск, включающего всю территория Республики Беларусь.

Сегодня зона ответственности РегЦ Самара – это воздушное пространство над территориями 5 республик (Татарстан, Марий Эл, Башкортостан, Мордовия, Чувашия) и 5 областей (Оренбургская, Самарская, Саратовская, Ульяновская и Пензенская) общей площадью около 600 тысяч квадратных километров.

Для РДЦ (Самара-Контроль) предусмотрено деление, которое может вводиться в случае загруженности зоны. Если вы видите в сети несколько позиций Самара-Контроль — посмотрите нашу интерактивную карту.

Протяжённость воздушных трасс составляет более 27,5 тысяч километров, из них более 23 тысяч километров составляют международные. В структуру воздушного пространства входят районы полетов 17 гражданских аэродромов (из них 11 - международные) и 23 аэродрома государственной и экспериментальной авиации. В тоже время доступно большое количество аэродромов и посадочных площадок для малой авиации. Также на территории района находится около десятка учебных аэродромов лётных училищ России - УИГА, БЛУГА, СПбГУГА и ККЛУГА.

С 2020 года РегЦ Самара, как и вся западная часть территории России, перешёл на выполнение полетов на высотах в футах по давлению QNH. На каждом аэродроме устанавливается фиксированная высота перехода в футах, при этом эшелон перехода может меняться в зависимости от текущего показателя давления QNH. Исключение составляет аэродром Уфы, где эшелон перехода зафиксирован и равен FL70.

Практически все аэродромы, расположенные в РЦ Самара, нашли своё представление во всех известных гражданских авиасимуляторах, начиная от FS9 и заканчивая MSFS2020. Вы можете найти варианты сценариев (как платных, так и бесплатных) для вашего симулятора на страничке соответствующего аэродрома - список и ссылки приведены ниже.

Одним из преимуществ РегЦ Самара с точки зрения полётов в сети VATSIM является его близость к популярному среди виртуальных пилотов РегЦ Москва, что позволяет совершить короткий перелёт из любого аэропорта Москвы в Поволжье и обратно в течение нескольких часов, что сравнимо по времени с самым популярным среди симмеров маршрутом из Москвы в Петербург и обратно.

При этом следует отметить, что по своей красоте мало какой из регионов может соревноваться с красотами Поволжья, особенно в летний период. Для вашего первого полёта рекомендуем аэродромы Казани и Самары, расположенные на берегах великой реки Волги. Если вы используете для полётов современный симулятор MSFS2020, то наслаждение полётом и внешними видами вам точно будет обеспечено, и вы не раз захотите повторить этот опыт.

Лого Самара
Руководство

Alexander Petrenko

Начальник РегЦ ЕС ОрВД (Самара)

Ivan Buev

Ивент-менеджер
Контакты

Инструкторы РПИ
Alexander Mikhin * (Controller)
Alexander Petrenko (Instructor)
Artem Smorchkov (Instructor)
Ivan Buev (Instructor)
Ivan Chokenyuk * (Controller)
Ivan Skatov (Instructor)
Sergei Stetsko * (Controller)
Входит в состав
Западная Россия

Диспетчеры РПИ

Диспетчер Рейтинг Допуски *
Alexander Mikhin Controller UWWW_CTR
Alexander Petrenko Instructor UWWW_CTR
Alexey Dobronravov Instructor UWWW_CTR
Anton Gluchenkov Senior Student UWWW_CTR  *, UWWW_APP
Artem Morozov Controller UWWW_CTR
Artem Smorchkov Instructor UWWW_CTR
Dmitry Bugaychuk Instructor UWWW_CTR
Dmitry Markus Instructor UWWW_CTR
Ivan Buev Instructor UWWW_CTR
Ivan Skatov Instructor UWWW_CTR
Maxim Tsygankov Instructor UWWW_CTR
Nick Smirnov Instructor UWWW_CTR
Sergei Stetsko Controller UWWW_CTR
Stanley Yorke Controller UWWW_CTR
Vladimir Anisimov Senior Controller UWWW_CTR
Yulia Goryacheva Instructor UWWW_CTR
Yury Koryagin Instructor UWWW_CTR
Alexander Akhundov Student 2 UWLL_TWR
Alexandr Sosnovsky Senior Student UWKB_R_TWR
Arseniy Artyushin Student 2 UWWW_APP*, UWWW_TWR!!!
Artem Badalov Senior Student UWKB_R_TWR
Arthur Kurbangaleev Student UWWW_GND
Egor Chertukhin Student UWWW_GND
Evgeniy Dedyaev Senior Student UWKD_APP(UWKD+UWKS+UWKE+UWKJ+UWKB) , UWLL_APP(UWLL+UWLW) , UWSG_APP, UWUU_APP, UWWW_APP
Evgeny Dubovitsky Student 2 UWLL_TWR, UWWW_TWR
Evgeny Zuev Senior Student UWWW_APP
Ivan Zubov Student 2 UWLL_TWR
mansur sibgatullin Student 2 UWKD_TWR, UWKD_R_APP*, UWWW_TWR
Maxim Gerasimov Instructor UWLL_APP(UWLL+UWLW)
Maxim Kalalenskiy Student 2 UWKD_TWR, UWLL_TWR, UWWW_TWR
Nikita Ioshkin Senior Student UWWW_APP
Vasya Voronin Student UWLL_GND

Аэропорты РПИ

ICAO Город Название Погода
UWWW Самара Курумоч UWWW 030630Z 00000MPS 4600 BR NSC M12/M14 Q1034 R15/CLRD69 NOSIG RMK QFE764/1019
UWUU Уфа Уфа UWUU 030630Z 18004MPS 5000 BR OVC017 M09/M11 Q1032 R14R/811050 NOSIG
UWKB Бугульма Бугульма
UWKJ Йошкар-Ола Йошкар-Ола
UWKD Казань Казань UWKD 030630Z 00000MPS 0100 R11/0150N FZFG BKN001 M08/M09 Q1033 R11/CLRD60 NOSIG RMK QBB050 QFE765/1020
UWKE Нижнекамск Бегишево UWKE 030630Z 25005MPS 9999 OVC021 M04/M06 Q1032 R21/810070 NOSIG RMK QFE757/1009
UWOO Оренбург Оренбург UWOO 030630Z 00000MPS 4100 BR SCT003 M15/M16 Q1035 R08/910255 NOSIG RMK QBB100 QFE765/1021
UWOR Орск Орск UWOR 030600Z 27008MPS 9000 NSC M07/M09 Q1032 R25/CLRD60 NOSIG RMK QFE750/1000
UWPP Пенза Пенза
UWPS Саранск Саранск UWPS 030630Z 00000MPS 9999 NSC M09/M11 Q1034 R20/810548 NOSIG RMK QFE758
UWSG Саратов Гагарин UWSG 030630Z 08001MPS 8000 NSC M11/M14 Q1035 R08/810168 NOSIG RMK QFE774/1032
UWLL Ульяновск-УЛК Ульяновск UWLL 030630Z 00000MPS CAVOK M12/M13 Q1035 R02/090065 NOSIG RMK QFE763/1018
UWLW Ульяновск-УЛС Восточный UWLW 030600Z 00000MPS 4000 BR OVC002 M14/M16 Q1034 R20/820558 NOSIG RMK QFE770/1027
UWKS Чебоксары Чебоксары UWKS 030630Z 31002MPS CAVOK M03/M03 Q1034 R24/810550 NOSIG RMK QFE761